sensor_id;sensor_type;location;lat;lon;timestamp;P1;durP1;ratioP1;P2;durP2;ratioP2
23670;SDS011;12012;51.998;7.614;2024-01-25T00:01:28;35.22;;;6.47;;
23670;SDS011;12012;51.998;7.614;2024-01-25T00:03:53;40.15;;;6.88;;
23670;SDS011;12012;51.998;7.614;2024-01-25T00:06:19;39.22;;;6.97;;
23670;SDS011;12012;51.998;7.614;2024-01-25T00:08:46;33.15;;;6.60;;
23670;SDS011;12012;51.998;7.614;2024-01-25T00:11:11;41.00;;;7.03;;
23670;SDS011;12012;51.998;7.614;2024-01-25T00:13:37;39.00;;;6.78;;
23670;SDS011;12012;51.998;7.614;2024-01-25T00:16:04;44.58;;;6.63;;
23670;SDS011;12012;51.998;7.614;2024-01-25T00:18:29;43.70;;;7.13;;
23670;SDS011;12012;51.998;7.614;2024-01-25T00:20:55;33.97;;;6.53;;
23670;SDS011;12012;51.998;7.614;2024-01-25T00:23:21;42.20;;;6.50;;
23670;SDS011;12012;51.998;7.614;2024-01-25T00:25:46;39.72;;;6.35;;
23670;SDS011;12012;51.998;7.614;2024-01-25T00:28:12;39.08;;;6.68;;
23670;SDS011;12012;51.998;7.614;2024-01-25T00:30:38;35.17;;;6.50;;
23670;SDS011;12012;51.998;7.614;2024-01-25T00:33:04;32.88;;;5.95;;
23670;SDS011;12012;51.998;7.614;2024-01-25T00:35:30;39.15;;;6.90;;
23670;SDS011;12012;51.998;7.614;2024-01-25T00:37:56;50.63;;;7.47;;
23670;SDS011;12012;51.998;7.614;2024-01-25T00:40:22;39.90;;;6.35;;
23670;SDS011;12012;51.998;7.614;2024-01-25T00:42:48;40.17;;;7.13;;
23670;SDS011;12012;51.998;7.614;2024-01-25T00:45:19;44.65;;;7.00;;
23670;SDS011;12012;51.998;7.614;2024-01-25T00:47:46;39.90;;;6.63;;
23670;SDS011;12012;51.998;7.614;2024-01-25T00:50:11;36.80;;;6.95;;
23670;SDS011;12012;51.998;7.614;2024-01-25T00:52:38;33.00;;;6.22;;
23670;SDS011;12012;51.998;7.614;2024-01-25T00:55:04;37.15;;;6.72;;
23670;SDS011;12012;51.998;7.614;2024-01-25T00:57:30;44.08;;;6.57;;
23670;SDS011;12012;51.998;7.614;2024-01-25T00:59:56;41.40;;;6.90;;
23670;SDS011;12012;51.998;7.614;2024-01-25T01:02:23;36.50;;;5.93;;
23670;SDS011;12012;51.998;7.614;2024-01-25T01:04:49;34.03;;;6.10;;
23670;SDS011;12012;51.998;7.614;2024-01-25T01:07:15;41.78;;;6.53;;
23670;SDS011;12012;51.998;7.614;2024-01-25T01:09:40;43.03;;;6.78;;
23670;SDS011;12012;51.998;7.614;2024-01-25T01:12:06;31.42;;;5.78;;
23670;SDS011;12012;51.998;7.614;2024-01-25T01:14:32;34.10;;;6.63;;
23670;SDS011;12012;51.998;7.614;2024-01-25T01:16:58;34.05;;;5.55;;
23670;SDS011;12012;51.998;7.614;2024-01-25T01:19:23;30.42;;;7.10;;
23670;SDS011;12012;51.998;7.614;2024-01-25T01:21:49;41.58;;;7.38;;
23670;SDS011;12012;51.998;7.614;2024-01-25T01:24:14;40.95;;;7.05;;
23670;SDS011;12012;51.998;7.614;2024-01-25T01:26:40;42.10;;;5.97;;
23670;SDS011;12012;51.998;7.614;2024-01-25T01:29:07;40.30;;;6.22;;
23670;SDS011;12012;51.998;7.614;2024-01-25T01:31:33;48.00;;;5.97;;
23670;SDS011;12012;51.998;7.614;2024-01-25T01:33:59;37.75;;;6.53;;
23670;SDS011;12012;51.998;7.614;2024-01-25T01:36:25;38.22;;;6.70;;
23670;SDS011;12012;51.998;7.614;2024-01-25T01:38:51;31.52;;;6.07;;
23670;SDS011;12012;51.998;7.614;2024-01-25T01:41:16;40.92;;;6.47;;
23670;SDS011;12012;51.998;7.614;2024-01-25T01:43:42;54.30;;;7.88;;
23670;SDS011;12012;51.998;7.614;2024-01-25T01:46:11;31.80;;;5.65;;
23670;SDS011;12012;51.998;7.614;2024-01-25T01:48:45;37.28;;;6.18;;
23670;SDS011;12012;51.998;7.614;2024-01-25T01:51:11;38.85;;;6.85;;
23670;SDS011;12012;51.998;7.614;2024-01-25T01:53:36;36.60;;;7.13;;
23670;SDS011;12012;51.998;7.614;2024-01-25T01:56:02;41.72;;;6.30;;
23670;SDS011;12012;51.998;7.614;2024-01-25T01:58:29;41.22;;;6.13;;
23670;SDS011;12012;51.998;7.614;2024-01-25T02:00:56;35.75;;;6.03;;
23670;SDS011;12012;51.998;7.614;2024-01-25T02:03:22;45.85;;;6.50;;
23670;SDS011;12012;51.998;7.614;2024-01-25T02:05:48;35.63;;;6.20;;
23670;SDS011;12012;51.998;7.614;2024-01-25T02:08:14;33.85;;;6.55;;
23670;SDS011;12012;51.998;7.614;2024-01-25T02:10:39;33.10;;;6.28;;
23670;SDS011;12012;51.998;7.614;2024-01-25T02:13:05;38.70;;;6.30;;
23670;SDS011;12012;51.998;7.614;2024-01-25T02:15:31;34.08;;;6.57;;
23670;SDS011;12012;51.998;7.614;2024-01-25T02:17:56;39.92;;;6.05;;
23670;SDS011;12012;51.998;7.614;2024-01-25T02:20:22;37.20;;;6.63;;
23670;SDS011;12012;51.998;7.614;2024-01-25T02:22:47;48.17;;;7.35;;
23670;SDS011;12012;51.998;7.614;2024-01-25T02:25:13;38.67;;;5.93;;
23670;SDS011;12012;51.998;7.614;2024-01-25T02:27:38;33.35;;;5.80;;
23670;SDS011;12012;51.998;7.614;2024-01-25T02:30:07;43.17;;;6.20;;
23670;SDS011;12012;51.998;7.614;2024-01-25T02:32:33;33.75;;;6.15;;
23670;SDS011;12012;51.998;7.614;2024-01-25T02:34:59;40.40;;;6.80;;
23670;SDS011;12012;51.998;7.614;2024-01-25T02:37:25;37.22;;;5.93;;
23670;SDS011;12012;51.998;7.614;2024-01-25T02:39:50;39.95;;;6.63;;
23670;SDS011;12012;51.998;7.614;2024-01-25T02:42:16;37.88;;;6.47;;
23670;SDS011;12012;51.998;7.614;2024-01-25T02:44:42;32.00;;;5.85;;
23670;SDS011;12012;51.998;7.614;2024-01-25T02:47:08;34.50;;;5.90;;
23670;SDS011;12012;51.998;7.614;2024-01-25T02:49:34;48.25;;;6.93;;
23670;SDS011;12012;51.998;7.614;2024-01-25T02:51:59;35.28;;;6.03;;
23670;SDS011;12012;51.998;7.614;2024-01-25T02:54:25;38.83;;;6.55;;
23670;SDS011;12012;51.998;7.614;2024-01-25T02:56:51;40.90;;;6.07;;
23670;SDS011;12012;51.998;7.614;2024-01-25T02:59:16;37.13;;;6.70;;
23670;SDS011;12012;51.998;7.614;2024-01-25T03:01:43;40.67;;;6.18;;
23670;SDS011;12012;51.998;7.614;2024-01-25T03:04:09;37.92;;;5.90;;
23670;SDS011;12012;51.998;7.614;2024-01-25T03:06:35;51.53;;;7.55;;
23670;SDS011;12012;51.998;7.614;2024-01-25T03:09:01;39.47;;;5.35;;
23670;SDS011;12012;51.998;7.614;2024-01-25T03:11:29;41.83;;;6.55;;
23670;SDS011;12012;51.998;7.614;2024-01-25T03:13:55;36.25;;;5.85;;
23670;SDS011;12012;51.998;7.614;2024-01-25T03:16:20;45.17;;;6.88;;
23670;SDS011;12012;51.998;7.614;2024-01-25T03:18:46;37.85;;;6.90;;
23670;SDS011;12012;51.998;7.614;2024-01-25T03:21:12;39.58;;;5.60;;
23670;SDS011;12012;51.998;7.614;2024-01-25T03:23:37;39.88;;;6.38;;
23670;SDS011;12012;51.998;7.614;2024-01-25T03:26:03;34.78;;;5.63;;
23670;SDS011;12012;51.998;7.614;2024-01-25T03:28:29;36.67;;;6.40;;
23670;SDS011;12012;51.998;7.614;2024-01-25T03:30:54;47.55;;;7.22;;
23670;SDS011;12012;51.998;7.614;2024-01-25T03:33:20;38.40;;;5.18;;
23670;SDS011;12012;51.998;7.614;2024-01-25T03:35:46;37.10;;;6.35;;
23670;SDS011;12012;51.998;7.614;2024-01-25T03:38:11;45.58;;;6.03;;
23670;SDS011;12012;51.998;7.614;2024-01-25T03:40:38;36.85;;;6.18;;
23670;SDS011;12012;51.998;7.614;2024-01-25T03:43:04;46.92;;;6.90;;
23670;SDS011;12012;51.998;7.614;2024-01-25T03:45:30;44.13;;;6.28;;
23670;SDS011;12012;51.998;7.614;2024-01-25T03:47:57;41.35;;;6.65;;
23670;SDS011;12012;51.998;7.614;2024-01-25T03:50:23;45.45;;;6.85;;
23670;SDS011;12012;51.998;7.614;2024-01-25T03:52:48;42.13;;;6.75;;
23670;SDS011;12012;51.998;7.614;2024-01-25T03:55:14;30.13;;;5.45;;
23670;SDS011;12012;51.998;7.614;2024-01-25T03:57:39;43.97;;;5.85;;
23670;SDS011;12012;51.998;7.614;2024-01-25T04:00:07;47.17;;;6.50;;
23670;SDS011;12012;51.998;7.614;2024-01-25T04:02:33;46.25;;;7.28;;
23670;SDS011;12012;51.998;7.614;2024-01-25T04:04:59;39.20;;;6.82;;
23670;SDS011;12012;51.998;7.614;2024-01-25T04:07:24;44.95;;;6.53;;
23670;SDS011;12012;51.998;7.614;2024-01-25T04:09:50;44.20;;;6.50;;
23670;SDS011;12012;51.998;7.614;2024-01-25T04:12:16;46.70;;;7.68;;
23670;SDS011;12012;51.998;7.614;2024-01-25T04:14:41;35.83;;;5.80;;
23670;SDS011;12012;51.998;7.614;2024-01-25T04:17:07;36.05;;;4.97;;
23670;SDS011;12012;51.998;7.614;2024-01-25T04:19:32;37.72;;;5.45;;
23670;SDS011;12012;51.998;7.614;2024-01-25T04:21:58;39.90;;;6.32;;
23670;SDS011;12012;51.998;7.614;2024-01-25T04:24:23;39.40;;;6.72;;
23670;SDS011;12012;51.998;7.614;2024-01-25T04:26:49;43.33;;;6.22;;
23670;SDS011;12012;51.998;7.614;2024-01-25T04:29:14;33.38;;;5.97;;
23670;SDS011;12012;51.998;7.614;2024-01-25T04:31:46;44.97;;;6.75;;
23670;SDS011;12012;51.998;7.614;2024-01-25T04:34:13;36.65;;;5.63;;
23670;SDS011;12012;51.998;7.614;2024-01-25T04:36:38;53.10;;;7.25;;
23670;SDS011;12012;51.998;7.614;2024-01-25T04:39:04;44.78;;;8.18;;
23670;SDS011;12012;51.998;7.614;2024-01-25T04:41:30;39.42;;;6.78;;
23670;SDS011;12012;51.998;7.614;2024-01-25T04:43:55;43.15;;;6.57;;
23670;SDS011;12012;51.998;7.614;2024-01-25T04:46:21;46.25;;;9.13;;
23670;SDS011;12012;51.998;7.614;2024-01-25T04:48:47;43.28;;;6.05;;
23670;SDS011;12012;51.998;7.614;2024-01-25T04:51:19;35.05;;;6.22;;
23670;SDS011;12012;51.998;7.614;2024-01-25T04:53:47;39.90;;;7.50;;
23670;SDS011;12012;51.998;7.614;2024-01-25T04:56:13;43.05;;;5.55;;
23670;SDS011;12012;51.998;7.614;2024-01-25T04:58:39;35.55;;;5.93;;
23670;SDS011;12012;51.998;7.614;2024-01-25T05:01:04;35.72;;;6.63;;
23670;SDS011;12012;51.998;7.614;2024-01-25T05:03:32;48.38;;;6.93;;
23670;SDS011;12012;51.998;7.614;2024-01-25T05:05:57;42.90;;;7.03;;
23670;SDS011;12012;51.998;7.614;2024-01-25T05:08:23;39.65;;;6.97;;
23670;SDS011;12012;51.998;7.614;2024-01-25T05:10:49;46.33;;;6.25;;
23670;SDS011;12012;51.998;7.614;2024-01-25T05:13:15;38.10;;;6.30;;
23670;SDS011;12012;51.998;7.614;2024-01-25T05:15:41;44.00;;;6.32;;
23670;SDS011;12012;51.998;7.614;2024-01-25T05:18:06;44.25;;;6.60;;
23670;SDS011;12012;51.998;7.614;2024-01-25T05:20:32;44.15;;;7.00;;
23670;SDS011;12012;51.998;7.614;2024-01-25T05:22:59;41.72;;;6.40;;
23670;SDS011;12012;51.998;7.614;2024-01-25T05:25:25;45.78;;;7.07;;
23670;SDS011;12012;51.998;7.614;2024-01-25T05:27:54;47.72;;;6.38;;
23670;SDS011;12012;51.998;7.614;2024-01-25T05:30:20;42.00;;;6.30;;
23670;SDS011;12012;51.998;7.614;2024-01-25T05:32:46;43.72;;;6.38;;
23670;SDS011;12012;51.998;7.614;2024-01-25T05:35:13;51.65;;;6.88;;
23670;SDS011;12012;51.998;7.614;2024-01-25T05:37:39;47.03;;;7.38;;
23670;SDS011;12012;51.998;7.614;2024-01-25T05:40:05;54.85;;;6.22;;
23670;SDS011;12012;51.998;7.614;2024-01-25T05:42:31;41.67;;;7.13;;
23670;SDS011;12012;51.998;7.614;2024-01-25T05:44:57;48.53;;;7.10;;
23670;SDS011;12012;51.998;7.614;2024-01-25T05:47:22;45.67;;;6.70;;
23670;SDS011;12012;51.998;7.614;2024-01-25T05:49:48;45.38;;;6.85;;
23670;SDS011;12012;51.998;7.614;2024-01-25T05:52:14;45.85;;;7.32;;
23670;SDS011;12012;51.998;7.614;2024-01-25T05:54:39;43.17;;;7.03;;
23670;SDS011;12012;51.998;7.614;2024-01-25T05:57:05;40.75;;;7.53;;
23670;SDS011;12012;51.998;7.614;2024-01-25T05:59:30;43.33;;;7.38;;
23670;SDS011;12012;51.998;7.614;2024-01-25T06:01:56;37.88;;;6.40;;
23670;SDS011;12012;51.998;7.614;2024-01-25T06:04:21;53.83;;;8.18;;
23670;SDS011;12012;51.998;7.614;2024-01-25T06:06:47;47.67;;;7.82;;
23670;SDS011;12012;51.998;7.614;2024-01-25T06:09:13;51.22;;;7.55;;
23670;SDS011;12012;51.998;7.614;2024-01-25T06:11:41;46.58;;;6.82;;
23670;SDS011;12012;51.998;7.614;2024-01-25T06:14:07;43.75;;;8.15;;
23670;SDS011;12012;51.998;7.614;2024-01-25T06:16:33;52.20;;;6.78;;
23670;SDS011;12012;51.998;7.614;2024-01-25T06:18:59;50.88;;;8.25;;
23670;SDS011;12012;51.998;7.614;2024-01-25T06:21:26;47.55;;;6.95;;
23670;SDS011;12012;51.998;7.614;2024-01-25T06:23:51;42.72;;;7.45;;
23670;SDS011;12012;51.998;7.614;2024-01-25T06:26:17;49.63;;;7.25;;
23670;SDS011;12012;51.998;7.614;2024-01-25T06:28:43;47.38;;;7.10;;
23670;SDS011;12012;51.998;7.614;2024-01-25T06:31:08;50.17;;;7.18;;
23670;SDS011;12012;51.998;7.614;2024-01-25T06:33:34;48.88;;;8.07;;
23670;SDS011;12012;51.998;7.614;2024-01-25T06:35:59;49.92;;;7.25;;
23670;SDS011;12012;51.998;7.614;2024-01-25T06:38:26;47.38;;;7.22;;
23670;SDS011;12012;51.998;7.614;2024-01-25T06:40:51;51.72;;;7.97;;
23670;SDS011;12012;51.998;7.614;2024-01-25T06:43:17;49.47;;;7.40;;
23670;SDS011;12012;51.998;7.614;2024-01-25T06:45:42;45.20;;;6.97;;
23670;SDS011;12012;51.998;7.614;2024-01-25T06:48:08;42.58;;;6.47;;
23670;SDS011;12012;51.998;7.614;2024-01-25T06:50:34;41.80;;;7.32;;
23670;SDS011;12012;51.998;7.614;2024-01-25T06:53:00;44.47;;;7.03;;
23670;SDS011;12012;51.998;7.614;2024-01-25T06:55:26;45.47;;;7.95;;
23670;SDS011;12012;51.998;7.614;2024-01-25T06:57:51;55.20;;;7.47;;
23670;SDS011;12012;51.998;7.614;2024-01-25T07:00:17;46.63;;;7.20;;
23670;SDS011;12012;51.998;7.614;2024-01-25T07:02:43;49.88;;;6.78;;
23670;SDS011;12012;51.998;7.614;2024-01-25T07:05:09;48.10;;;8.75;;
23670;SDS011;12012;51.998;7.614;2024-01-25T07:07:35;40.33;;;7.18;;
23670;SDS011;12012;51.998;7.614;2024-01-25T07:10:03;44.70;;;6.75;;
23670;SDS011;12012;51.998;7.614;2024-01-25T07:12:29;48.65;;;7.60;;
23670;SDS011;12012;51.998;7.614;2024-01-25T07:14:55;48.08;;;7.50;;
23670;SDS011;12012;51.998;7.614;2024-01-25T07:17:21;45.05;;;7.80;;
23670;SDS011;12012;51.998;7.614;2024-01-25T07:19:46;48.42;;;7.78;;
23670;SDS011;12012;51.998;7.614;2024-01-25T07:22:12;41.95;;;8.15;;
23670;SDS011;12012;51.998;7.614;2024-01-25T07:24:39;48.38;;;7.97;;
23670;SDS011;12012;51.998;7.614;2024-01-25T07:27:05;42.53;;;7.38;;
23670;SDS011;12012;51.998;7.614;2024-01-25T07:29:30;47.20;;;7.43;;
23670;SDS011;12012;51.998;7.614;2024-01-25T07:31:56;50.17;;;8.15;;
23670;SDS011;12012;51.998;7.614;2024-01-25T07:34:22;50.88;;;8.02;;
23670;SDS011;12012;51.998;7.614;2024-01-25T07:36:47;53.25;;;8.35;;
23670;SDS011;12012;51.998;7.614;2024-01-25T07:39:13;47.67;;;8.05;;
23670;SDS011;12012;51.998;7.614;2024-01-25T07:41:38;34.60;;;6.97;;
23670;SDS011;12012;51.998;7.614;2024-01-25T07:44:04;55.97;;;9.20;;
23670;SDS011;12012;51.998;7.614;2024-01-25T07:46:31;57.15;;;8.27;;
23670;SDS011;12012;51.998;7.614;2024-01-25T07:48:56;43.75;;;6.82;;
23670;SDS011;12012;51.998;7.614;2024-01-25T07:51:22;38.80;;;7.10;;
23670;SDS011;12012;51.998;7.614;2024-01-25T07:53:47;37.40;;;7.22;;
23670;SDS011;12012;51.998;7.614;2024-01-25T07:56:13;47.20;;;7.25;;
23670;SDS011;12012;51.998;7.614;2024-01-25T07:58:40;43.13;;;7.72;;
23670;SDS011;12012;51.998;7.614;2024-01-25T08:01:06;39.33;;;6.82;;
23670;SDS011;12012;51.998;7.614;2024-01-25T08:03:32;38.88;;;7.03;;
23670;SDS011;12012;51.998;7.614;2024-01-25T08:05:58;46.33;;;7.57;;
23670;SDS011;12012;51.998;7.614;2024-01-25T08:08:25;48.42;;;9.77;;
23670;SDS011;12012;51.998;7.614;2024-01-25T08:10:51;48.90;;;8.75;;
23670;SDS011;12012;51.998;7.614;2024-01-25T08:13:16;52.40;;;9.25;;
23670;SDS011;12012;51.998;7.614;2024-01-25T08:15:42;47.78;;;7.30;;
23670;SDS011;12012;51.998;7.614;2024-01-25T08:18:07;51.30;;;8.73;;
23670;SDS011;12012;51.998;7.614;2024-01-25T08:20:33;40.45;;;7.40;;
23670;SDS011;12012;51.998;7.614;2024-01-25T08:23:00;44.10;;;8.00;;
23670;SDS011;12012;51.998;7.614;2024-01-25T08:25:25;44.95;;;8.60;;
23670;SDS011;12012;51.998;7.614;2024-01-25T08:27:51;40.35;;;7.95;;
23670;SDS011;12012;51.998;7.614;2024-01-25T08:30:17;57.47;;;9.50;;
23670;SDS011;12012;51.998;7.614;2024-01-25T08:32:43;48.45;;;8.15;;
23670;SDS011;12012;51.998;7.614;2024-01-25T08:35:09;51.38;;;9.13;;
23670;SDS011;12012;51.998;7.614;2024-01-25T08:37:35;45.67;;;8.13;;
23670;SDS011;12012;51.998;7.614;2024-01-25T08:40:03;41.03;;;6.47;;
23670;SDS011;12012;51.998;7.614;2024-01-25T08:42:31;40.38;;;7.68;;
23670;SDS011;12012;51.998;7.614;2024-01-25T08:44:56;41.85;;;7.60;;
23670;SDS011;12012;51.998;7.614;2024-01-25T08:47:22;48.00;;;8.15;;
23670;SDS011;12012;51.998;7.614;2024-01-25T08:49:48;48.97;;;8.75;;
23670;SDS011;12012;51.998;7.614;2024-01-25T08:52:13;45.75;;;8.07;;
23670;SDS011;12012;51.998;7.614;2024-01-25T08:54:40;50.92;;;8.30;;
23670;SDS011;12012;51.998;7.614;2024-01-25T08:57:07;52.00;;;8.20;;
23670;SDS011;12012;51.998;7.614;2024-01-25T08:59:33;48.30;;;8.75;;
23670;SDS011;12012;51.998;7.614;2024-01-25T09:02:02;38.17;;;8.20;;
23670;SDS011;12012;51.998;7.614;2024-01-25T09:04:31;46.72;;;7.78;;
23670;SDS011;12012;51.998;7.614;2024-01-25T09:06:57;38.72;;;8.40;;
23670;SDS011;12012;51.998;7.614;2024-01-25T09:09:23;48.95;;;8.23;;
23670;SDS011;12012;51.998;7.614;2024-01-25T09:11:48;43.38;;;8.38;;
23670;SDS011;12012;51.998;7.614;2024-01-25T09:14:14;42.58;;;8.30;;
23670;SDS011;12012;51.998;7.614;2024-01-25T09:16:40;48.15;;;8.73;;
23670;SDS011;12012;51.998;7.614;2024-01-25T09:19:05;50.70;;;7.57;;
23670;SDS011;12012;51.998;7.614;2024-01-25T09:21:31;47.17;;;8.73;;
23670;SDS011;12012;51.998;7.614;2024-01-25T09:23:56;48.08;;;8.32;;
23670;SDS011;12012;51.998;7.614;2024-01-25T09:26:22;42.63;;;8.23;;
23670;SDS011;12012;51.998;7.614;2024-01-25T09:28:48;52.53;;;9.70;;
23670;SDS011;12012;51.998;7.614;2024-01-25T09:31:13;47.28;;;8.60;;
23670;SDS011;12012;51.998;7.614;2024-01-25T09:33:39;51.45;;;8.45;;
23670;SDS011;12012;51.998;7.614;2024-01-25T09:36:05;47.75;;;8.30;;
23670;SDS011;12012;51.998;7.614;2024-01-25T09:38:30;45.53;;;9.00;;
23670;SDS011;12012;51.998;7.614;2024-01-25T09:40:56;47.92;;;8.88;;
23670;SDS011;12012;51.998;7.614;2024-01-25T09:43:22;45.70;;;7.75;;
23670;SDS011;12012;51.998;7.614;2024-01-25T09:45:53;47.78;;;8.57;;
23670;SDS011;12012;51.998;7.614;2024-01-25T09:48:22;40.50;;;7.72;;
23670;SDS011;12012;51.998;7.614;2024-01-25T09:50:48;53.42;;;9.45;;
23670;SDS011;12012;51.998;7.614;2024-01-25T09:53:17;51.97;;;9.57;;
23670;SDS011;12012;51.998;7.614;2024-01-25T09:55:49;55.75;;;9.02;;
23670;SDS011;12012;51.998;7.614;2024-01-25T09:58:23;40.33;;;7.72;;
23670;SDS011;12012;51.998;7.614;2024-01-25T10:00:51;43.17;;;8.55;;
23670;SDS011;12012;51.998;7.614;2024-01-25T10:03:17;51.35;;;8.80;;
23670;SDS011;12012;51.998;7.614;2024-01-25T10:05:43;44.63;;;8.23;;
23670;SDS011;12012;51.998;7.614;2024-01-25T10:08:12;48.50;;;8.20;;
23670;SDS011;12012;51.998;7.614;2024-01-25T10:10:38;39.20;;;7.88;;
23670;SDS011;12012;51.998;7.614;2024-01-25T10:13:04;44.72;;;7.93;;
23670;SDS011;12012;51.998;7.614;2024-01-25T10:15:30;46.97;;;8.30;;
23670;SDS011;12012;51.998;7.614;2024-01-25T10:17:55;34.20;;;7.88;;
23670;SDS011;12012;51.998;7.614;2024-01-25T10:20:21;45.17;;;8.20;;
23670;SDS011;12012;51.998;7.614;2024-01-25T10:22:49;47.10;;;8.52;;
23670;SDS011;12012;51.998;7.614;2024-01-25T10:25:15;50.22;;;8.73;;
23670;SDS011;12012;51.998;7.614;2024-01-25T10:27:40;45.30;;;8.50;;
23670;SDS011;12012;51.998;7.614;2024-01-25T10:30:07;48.30;;;8.70;;
23670;SDS011;12012;51.998;7.614;2024-01-25T10:32:34;35.55;;;8.15;;
23670;SDS011;12012;51.998;7.614;2024-01-25T10:35:00;38.85;;;8.57;;
23670;SDS011;12012;51.998;7.614;2024-01-25T10:37:27;34.47;;;7.20;;
23670;SDS011;12012;51.998;7.614;2024-01-25T10:39:54;51.08;;;9.18;;
23670;SDS011;12012;51.998;7.614;2024-01-25T10:42:21;51.63;;;8.82;;
23670;SDS011;12012;51.998;7.614;2024-01-25T10:44:46;43.50;;;8.52;;
23670;SDS011;12012;51.998;7.614;2024-01-25T10:47:12;38.88;;;9.63;;
23670;SDS011;12012;51.998;7.614;2024-01-25T10:49:37;42.30;;;9.85;;
23670;SDS011;12012;51.998;7.614;2024-01-25T10:52:04;44.63;;;8.73;;
23670;SDS011;12012;51.998;7.614;2024-01-25T10:54:31;43.13;;;9.20;;
23670;SDS011;12012;51.998;7.614;2024-01-25T10:56:57;47.70;;;8.32;;
23670;SDS011;12012;51.998;7.614;2024-01-25T10:59:23;44.50;;;9.63;;
23670;SDS011;12012;51.998;7.614;2024-01-25T11:01:50;40.13;;;8.70;;
23670;SDS011;12012;51.998;7.614;2024-01-25T11:04:19;50.08;;;9.70;;
23670;SDS011;12012;51.998;7.614;2024-01-25T11:06:45;46.20;;;10.50;;
23670;SDS011;12012;51.998;7.614;2024-01-25T11:09:14;34.33;;;8.80;;
23670;SDS011;12012;51.998;7.614;2024-01-25T11:11:43;39.63;;;8.80;;
23670;SDS011;12012;51.998;7.614;2024-01-25T11:14:12;37.47;;;9.10;;
23670;SDS011;12012;51.998;7.614;2024-01-25T11:16:39;41.67;;;9.23;;
23670;SDS011;12012;51.998;7.614;2024-01-25T11:19:15;36.70;;;7.05;;
23670;SDS011;12012;51.998;7.614;2024-01-25T11:21:46;38.70;;;8.77;;
23670;SDS011;12012;51.998;7.614;2024-01-25T11:24:16;35.63;;;8.85;;
23670;SDS011;12012;51.998;7.614;2024-01-25T11:26:46;37.20;;;7.65;;
23670;SDS011;12012;51.998;7.614;2024-01-25T11:29:15;37.28;;;9.30;;
23670;SDS011;12012;51.998;7.614;2024-01-25T11:31:42;36.80;;;8.45;;
23670;SDS011;12012;51.998;7.614;2024-01-25T11:34:12;38.20;;;8.82;;
23670;SDS011;12012;51.998;7.614;2024-01-25T11:36:40;34.80;;;7.03;;
23670;SDS011;12012;51.998;7.614;2024-01-25T11:39:06;34.75;;;8.00;;
23670;SDS011;12012;51.998;7.614;2024-01-25T11:41:34;34.22;;;8.10;;
23670;SDS011;12012;51.998;7.614;2024-01-25T11:44:01;40.22;;;8.85;;
23670;SDS011;12012;51.998;7.614;2024-01-25T11:46:30;33.63;;;7.53;;
23670;SDS011;12012;51.998;7.614;2024-01-25T11:48:57;30.50;;;8.18;;
23670;SDS011;12012;51.998;7.614;2024-01-25T11:51:24;37.28;;;9.15;;
23670;SDS011;12012;51.998;7.614;2024-01-25T11:53:49;37.47;;;8.38;;
23670;SDS011;12012;51.998;7.614;2024-01-25T11:56:17;35.97;;;8.18;;
23670;SDS011;12012;51.998;7.614;2024-01-25T11:58:54;33.67;;;7.72;;
23670;SDS011;12012;51.998;7.614;2024-01-25T12:01:21;35.88;;;8.52;;
23670;SDS011;12012;51.998;7.614;2024-01-25T12:03:49;39.95;;;9.27;;
23670;SDS011;12012;51.998;7.614;2024-01-25T12:06:14;31.05;;;8.20;;
23670;SDS011;12012;51.998;7.614;2024-01-25T12:08:40;38.28;;;8.82;;
23670;SDS011;12012;51.998;7.614;2024-01-25T12:11:06;34.67;;;8.70;;
23670;SDS011;12012;51.998;7.614;2024-01-25T12:13:33;37.83;;;9.48;;
23670;SDS011;12012;51.998;7.614;2024-01-25T12:16:06;33.75;;;8.43;;
23670;SDS011;12012;51.998;7.614;2024-01-25T12:18:33;32.83;;;8.00;;
23670;SDS011;12012;51.998;7.614;2024-01-25T12:21:00;36.08;;;8.68;;
23670;SDS011;12012;51.998;7.614;2024-01-25T12:23:30;30.95;;;7.35;;
23670;SDS011;12012;51.998;7.614;2024-01-25T12:26:00;33.83;;;7.97;;
23670;SDS011;12012;51.998;7.614;2024-01-25T12:28:30;40.30;;;8.68;;
23670;SDS011;12012;51.998;7.614;2024-01-25T12:30:59;40.92;;;8.13;;
23670;SDS011;12012;51.998;7.614;2024-01-25T12:33:26;40.30;;;7.65;;
23670;SDS011;12012;51.998;7.614;2024-01-25T12:35:52;33.90;;;8.73;;
23670;SDS011;12012;51.998;7.614;2024-01-25T12:38:19;35.85;;;7.95;;
23670;SDS011;12012;51.998;7.614;2024-01-25T12:40:46;39.70;;;8.73;;
23670;SDS011;12012;51.998;7.614;2024-01-25T12:43:15;36.05;;;8.25;;
23670;SDS011;12012;51.998;7.614;2024-01-25T12:45:41;33.63;;;8.45;;
23670;SDS011;12012;51.998;7.614;2024-01-25T12:48:07;35.60;;;8.05;;
23670;SDS011;12012;51.998;7.614;2024-01-25T12:50:33;31.95;;;8.43;;
23670;SDS011;12012;51.998;7.614;2024-01-25T12:53:00;36.45;;;9.38;;
23670;SDS011;12012;51.998;7.614;2024-01-25T12:55:27;46.95;;;9.02;;
23670;SDS011;12012;51.998;7.614;2024-01-25T12:57:53;38.35;;;8.95;;
23670;SDS011;12012;51.998;7.614;2024-01-25T13:00:19;44.40;;;9.40;;
23670;SDS011;12012;51.998;7.614;2024-01-25T13:02:45;49.28;;;8.55;;
23670;SDS011;12012;51.998;7.614;2024-01-25T13:05:10;39.08;;;7.95;;
23670;SDS011;12012;51.998;7.614;2024-01-25T13:07:36;39.28;;;7.60;;
23670;SDS011;12012;51.998;7.614;2024-01-25T13:10:01;32.00;;;6.88;;
23670;SDS011;12012;51.998;7.614;2024-01-25T13:12:27;39.72;;;8.45;;
23670;SDS011;12012;51.998;7.614;2024-01-25T13:14:52;43.40;;;7.28;;
23670;SDS011;12012;51.998;7.614;2024-01-25T13:17:18;39.60;;;7.43;;
23670;SDS011;12012;51.998;7.614;2024-01-25T13:19:46;34.08;;;7.03;;
23670;SDS011;12012;51.998;7.614;2024-01-25T13:22:12;34.45;;;7.35;;
23670;SDS011;12012;51.998;7.614;2024-01-25T13:24:38;35.13;;;7.20;;
23670;SDS011;12012;51.998;7.614;2024-01-25T13:27:04;41.63;;;6.90;;
23670;SDS011;12012;51.998;7.614;2024-01-25T13:29:30;36.38;;;8.20;;
23670;SDS011;12012;51.998;7.614;2024-01-25T13:31:55;35.85;;;7.03;;
23670;SDS011;12012;51.998;7.614;2024-01-25T13:34:21;29.83;;;6.70;;
23670;SDS011;12012;51.998;7.614;2024-01-25T13:36:46;33.42;;;7.65;;
23670;SDS011;12012;51.998;7.614;2024-01-25T13:39:12;32.25;;;6.72;;
23670;SDS011;12012;51.998;7.614;2024-01-25T13:41:37;31.55;;;7.00;;
23670;SDS011;12012;51.998;7.614;2024-01-25T13:44:03;34.85;;;7.18;;
23670;SDS011;12012;51.998;7.614;2024-01-25T13:46:29;31.20;;;7.20;;
23670;SDS011;12012;51.998;7.614;2024-01-25T13:48:54;34.88;;;7.07;;
23670;SDS011;12012;51.998;7.614;2024-01-25T13:51:20;29.67;;;6.38;;
23670;SDS011;12012;51.998;7.614;2024-01-25T13:53:45;30.42;;;6.80;;
23670;SDS011;12012;51.998;7.614;2024-01-25T13:56:12;30.08;;;7.03;;
23670;SDS011;12012;51.998;7.614;2024-01-25T13:58:38;32.42;;;7.47;;
23670;SDS011;12012;51.998;7.614;2024-01-25T14:01:03;30.30;;;6.68;;
23670;SDS011;12012;51.998;7.614;2024-01-25T14:03:29;37.13;;;7.25;;
23670;SDS011;12012;51.998;7.614;2024-01-25T14:05:56;33.45;;;6.35;;
23670;SDS011;12012;51.998;7.614;2024-01-25T14:08:22;36.30;;;7.25;;
23670;SDS011;12012;51.998;7.614;2024-01-25T14:10:48;34.65;;;6.38;;
23670;SDS011;12012;51.998;7.614;2024-01-25T14:13:13;41.30;;;8.07;;
23670;SDS011;12012;51.998;7.614;2024-01-25T14:15:39;38.17;;;7.43;;
23670;SDS011;12012;51.998;7.614;2024-01-25T14:18:04;38.90;;;8.02;;
23670;SDS011;12012;51.998;7.614;2024-01-25T14:20:30;38.10;;;7.55;;
23670;SDS011;12012;51.998;7.614;2024-01-25T14:22:56;40.95;;;7.68;;
23670;SDS011;12012;51.998;7.614;2024-01-25T14:25:22;36.35;;;7.05;;
23670;SDS011;12012;51.998;7.614;2024-01-25T14:27:48;35.90;;;7.28;;